woensdag 17 oktober 2018 | Home | Bestenlijsten | Bestenlijsten NL | Calculator eindtijd | Nieuws | Uitslagen | Videos | Wedstrijden | VZA Ranglijsten | Weer |
 
 
Recent nieuws meer nieuws
12-10: Het zwarte gat na de marathon.
10-10: Flandrien Willem van Schuerbeeck kwam, zag en overwon in 16e Kustmarathon
08-10: Belg Van Schuerbeeck soleert naar zege in Kustmarathon
05-10: Te hard van stapel lopen, vooral in de marathon, resulteert vaak in een domper
03-10: Poolse Kustmarathonwinnaar komt weer op vakantie
27-09: De “reactieterreur” van JaRo
Wedstrijdagenda meer wedstrijden
za 20-10: Hulsterloo Loop Nieuw-Namen
za 20-10: 57e Singelloop Middelburg
zo 21-10: 43e Amsterdam Marathon
vr 26-10: 3e Halloween Run Middelburg
za 27-10: 17e Piet Spruit Memorial Loop Sluiskil
za 27-10: 7e Stelleplascross Heinkenszand
zo 28-10: 36e Marathon Brabant Etten-Leur
za 03-11: Appelloop Axel
za 03-11: 33e Moerschanscross Hulst
zo 04-11: 8e Trail By The Sea Renesse
za 10-11: Jeff Thuy Memorial Heikant
za 10-11: 51e Mosselloop Westenschouwen
za 17-11: Juul Van De Walleloop Kieldrecht
za 17-11: 18e Hobbeldebobbelloop Zoutelande
Recente uitslagen meer uitslagen
za 06-10: 16e Kustmarathon Zoutelande
vr 05-10: 11e Ladiesrun Zoutelande
za 29-09: 10 Miles Philippine (101)
vr 28-09: Pump-up Run 10k Middelburg (47)
zo 23-09: 2e Kraaieloop Lewedorp (51)
za 22-09: Bamisrun Kloosterzande (127)
vr 21-09: Vaart van Vlissingen (166)
za 15-09: 2e Bosse Pielenloop Vogelwaarde (79)
za 15-09: 15e Tielemanloop Middelharnis
vr 14-09: 23e Stadsloop Goes (188)
za 08-09: 5e d'Ossekoppenloop Ossenisse (133)
 
Zoek tenminste met 3 tekens van wedstrijd, datum, plaats of atleet
2e Natuurloop
Nieuwvliet, zondag 31 december 2017 - Organisatie: Wielingen
8.4 km
PltsNaam
Tijdkm/umin/km
1  Yves de PoorterKnokke33.20Mse   15.120  3:58
2  Michael DewildeEeklo33.29Mse   15.052  3:59
3  Angelo van NevelZedelgem35.08Mse   14.345  4:11
4  Theo RaboutAardenburg36.02M40   13.987  4:17
5  Stijn DeruyterBrugge36.13Mse   13.916  4:19
6  Simon de ClerckNieuwvliet37.04M35   13.597  4:25
7  Martijn KoxWestdorpe37.09Mse   13.567  4:25
8  Ronny TresonieSluis37.22Mse   13.488  4:27
9  Peter SlitsSluis37.33M50   13.422  4:28
10  Marco de FeijterSchoondijke38.01Mse   13.257  4:32
11  Dries LeysBrugge38.18Mse   13.159  4:34
12  Wim BrackeBrugge38.19Mse   13.154  4:34
13  Maarten BikkerDrunen38.33Mse   13.074  4:35
14  Gilles BaekelandtKnokke38.40Mse   13.034  4:36
15  Jan ZellinDorsten38.42Mse   13.023  4:36
16  Elfier VandenbraembussBrugge39.01Mse   12.918  4:39
17  Francois van de BroeckeBreskens39.11Mse   12.863  4:40
18  Patrick van MorrelgemSluis39.21Mse   12.808  4:41
19  Frederique VersluijsZuidzande39.37V45   12.722  4:43
20  Robert van de KerkhoveDraaibrug40.25M40   12.470  4:49
21  Jeroen DellaertGroede40.27Mse   12.460  4:49
22  Koen HamelinkNieuwvliet40.38Mse   12.404  4:50
23  Patrick van QuekelbergheAardenburg41.13M50   12.228  4:54
24  Michel de RuijsscherBreskens41.23M45   12.179  4:56
25  Janyck de BufOostende41.33Mse   12.130  4:57
26  Walther MurreZaamslag42.05M50   11.976  5:01
27  Gino SesselleBentille42.49Mse   11.771  5:06
28  Jaap van der VeenTerneuzen42.57M50   11.735  5:07
29  Gert SchoorsAdeghem43.45Mse   11.520  5:13
30  Jan DucaatGroede43.53Mse   11.485  5:13
31  Albert PlatteeuwTerneuzen44.22M50   11.360  5:17
32  Onbekend?44.33Mse   11.313  5:18
33  Guy WalderKnokke44.57Mse   11.212  5:21
34  Simon de FeijterBreskens45.12Mse   11.150  5:23
35  Johnny DoomsTerneuzen45.13M60   11.146  5:23
36  Jan EngelaarOostburg45.32Mse   11.069  5:25
37  Miek VynckeMaldegem45.51Vse   10.992  5:28
38  John BirchBreskens46.00Mse   10.957  5:29
39  Louis CouvrierKnokke46.24Mse   10.862  5:31
40  Jurgen WillemsenSchoondijke47.10Mse   10.686  5:37
41  Mikhael PaulusKnokke47.14Mse   10.670  5:37
42  Ares den HollanderCadzand48.26Mse   10.406  5:46
43  Stephanie van PouckeBreskens48.48Vse   10.328  5:49
44  Fons WalderKokke48.55Mse   10.303  5:49
45  Ronald GoormachtigEsse49.07Mse   10.261  5:51
46  Edwin MabelisOostburg49.13Mse   10.240  5:52
47  Stefan TalpeKnokke49.23Mse   10.206  5:53
48  Catherine VerhelstKnokke49.30Vse   10.182  5:54
49  Nobert WillemsenSchoondijke49.31Mse   10.178  5:54
50  Michel FieretTerneuzen49.40Mse   10.148  5:55
51  Frank FaesSluis51.25Mse   9.802  6:07
52  Chris VanmaldegemKnokke52.31Mse   9.597  6:15
53  Christian DelacourtKnokke52.32Mse   9.594  6:15
54  Jocky ZlilauliIeper53.26Mse   9.432  6:22
55  Martin VinjeSchoondijke53.30Mse   9.421  6:22
56  Jean DeloddereKnokke55.08Mse   9.141  6:34
57  Jan Piet FlikweertOostburg55.37M55   9.062  6:37
58  Fred VermeireBreskens55.38M50   9.059  6:37
59  Martin KesselDusseldorf56.49Mse   8.871  6:46
60  Sylvie PoppeKnokke59.30Vse   8.471  7:05
61  Karel van EetveltBornum1.00.58Mse   8.267  7:15
62  Ann DecuypereKnokke1.01.10Vse   8.240  7:17
63  Karel TobbakPuurs1.14.21Mse   6.779  8:51
Mannen: 57 (90.48%) => M35=1 - M40=2 - M45=1 - M50=6 - M55=1 - M60=1 - Mse=45
Vrouwen: 6 (9.52%) => V45=1 - Vse=5
4.2 km
PltsNaam
Tijdkm/umin/km
1  Wannes DejaegherDiksmuide16.30Mse   15.273  3:56
2  Kevin StrubbeAdegem17.14Mse   14.623  4:06
3  Rowin SmekensSchoondijke17.53Mse   14.091  4:15
4  Bart van den HemelGroede18.03Mse   13.961  4:18
5  Amor MaertensNummer Een18.52Mse   13.357  4:30
6  Marc LauwersGrimbergen19.01Mse   13.252  4:32
7  Marco van der MeulenOotburg19.32Mse   12.901  4:39
8  Jan ElfrinkGroede19.44Mse   12.770  4:42
9  Floris HuighSchoondijke19.50Mse   12.706  4:43
10  Jacques ZamanTerneuzen19.54M55   12.663  4:44
11  Peter van WaesAardenburg20.13M55   12.465  4:49
12  Bart DejaegherDiksmuide20.34Mse   12.253  4:54
13  John de FeijterOostburg20.38Mse   12.213  4:55
14  Twan RijnbergZuidzande20.42Mse   12.174  4:56
15  Patrick de SutterOostburg20.49Mse   12.106  4:57
16  Arno van den HemelGroede21.40Mse   11.631  5:10
17  Sven VerploegOosturg21.52Mse   11.524  5:12
18  Jan van LoonTilburg22.19Mse   11.292  5:19
19  Paz BoekhoutSint Kruis22.41Mse   11.109  5:24
20  Guus de SmitSchoondijke23.10Mse   10.878  5:31
21  Rudie HogervorstAardenburg23.23M50   10.777  5:34
22  Lucas FaesSluis23.24Mse   10.769  5:34
23  Roos de SmitSchoondijke24.25Vse   10.321  5:49
24  Rini FenijnNieuwvliet24.59Mse   10.087  5:57
25  Corinne MaertensNummer Een25.11Vse   10.007  6:00
26  Giovani BoumanOostburg25.20Mse   9.947  6:02
27  Maud van LeeningSluis25.49Vse   9.761  6:09
28  Annemie de PreitereMoerkerke26.21Vse   9.564  6:16
29  Eric Van NevelKoolkerke26.22Mse   9.558  6:17
30  Katrien VervarckeOostkerke26.23Vse   9.551  6:17
31  Kurt de MuytDamme26.24Mse   9.545  6:17
32  Stephanie van der VeenTerneuzen27.09Vse   9.282  6:28
33  Wendy van de VeldeHoofdplaat27.57Vse   9.016  6:39
34  Nathalie DerochetteDudzele28.15Vse   8.920  6:44
35  Hanna den HollanderCadzand28.31Vse   8.837  6:47
36  Anne-Marie ThomaesHoofdplaat28.52Vse   8.730  6:52
37  Cindy DijkersBiervliet28.53Vse   8.725  6:53
38  Marenne HuighCadzand29.05Vse   8.665  6:55
39  Daisy van de VeldeOostburg30.26Vse   8.280  7:15
40  Harm AarnoutseOostburg30.47Mse   8.186  7:20
Mannen: 27 (67.5%) => M50=1 - M55=2 - Mse=24
Vrouwen: 13 (32.5%) => Vse=13

Overzicht Top3, winnares en aantal deelnemers in eerdere jaren

JaarWinnaarTijd2eTijd 3eTijdWinnaresTijd#
2017Wannes Dejaegher16:30Kevin Strubbe17:14Rowin Smekens17:53Roos de Smit24:2540
2015Wannes DeJaegher17:08Stijn Deruyter17:46Yves Martin18:02Evelien de Visser24:4156


Snelheid en tempo zijn berekend op de vermelde afstand. Bij een onjuiste afstand wijken deze uiteraard af!

Fouten melden via info@atletiekzeeland.nl Categorie fout? Mail dan geboortedatum. (geldt alleen voor Zeeuwen)

De server had 0.109 seconden nodig om deze lijst met 103 prestaties samen te stellen.

Terug naar boven

Vorige uitslagen
DatumWedstrijdPlaatsVereniging Hits
25-02-2018 3e NatuurloopCadzandWielingen0
11-03-2018 4e NatuurloopCadzand-BadWielingen0
12-11-2017 1e NatuurloopRetranchementWielingen0
13-11-2016 NatuurloopCadzandWielingen375
31-12-2015 2e NatuurloopCadzandWielingen616
15-11-2015 1e NatuurloopCadzand-BadWielingen633
17-02-2013 NatuurloopCadzand-BadWielingen778
18-11-2012 NatuurloopCadzandWielingen937
06-03-2011 NatuurloopCadzand-BadWielingen1116
17-02-2008 NatuurloopNieuwvliet-BadWielingen564
02-03-2008 NatuurloopCadzand-BadWielingen650
31-12-2007 NatuurloopNieuwvliet-BadWielingen703
06-03-2005 NatuurloopCadzand-BadWielingen510
15-02-2004 NatuurloopNieuwvliet-BadWielingen396

 
Laatste reactie:
Jan Roose: Het Zwarte Gat Na De Marathon...
Recente Zeeuwse prestaties meer prestaties
14-10: 35e Marathon Eindhoven (10)
14-10: Linker Oevert marathon Antwerpen (5)
10 km Maurice Steketee (PR 41.35)47.07  M35
halve Rinus van de Woestijne (PR 1.28.50)1.40.19  M35
halve Marije Besuijen (PR 1.45.31)1.56.12  V40
marath Crum van der Linden (PR 2.56.12)3.16.57  Mse
marath Ingrid IJsebaert (PR 3.10.27)3.44.08  V50
07-10: 33e Singelloop Breda (41)
23-09: Berenloop Beernem (5)
23-09: 34e Dam tot Damloop Amsterdam (24)
23-09: Vestingloop Willemstad (21)
16-09: Berlin marathon Berlijn (4)
09-09: Quikrun Roosendaal (7)
09-09: Halve Marathon Oostland Pijnacker (5)
09-09: Flanders Field Marathon Ieper (4)
09-09: Münster marathon (4)
08-09: 43e Run Winschoten (3)
08-09: WK 100 km Sveti Martin na Muri (2)
02-09: 30e Tilburg Ten Miles (30)
01-09: Halve Marathon Evergem (6)
01-09: Memorial Polspoel Vilvoorde (1)
31-08: Track Meeting Utrecht (4)
28-08: 10km van Groot Steenbergen (3)
23-08: 3000m Meeting Rotterdam (3)
Recente video(s)
Atletiek Zeeland © 2018